sensor_id;sensor_type;location;lat;lon;timestamp;P1;durP1;ratioP1;P2;durP2;ratioP2
15228;SDS011;7717;47.792;12.076;2023-04-01T00:00:27;0.93;;;0.50;;
15228;SDS011;7717;47.792;12.076;2023-04-01T00:02:53;1.20;;;0.20;;
15228;SDS011;7717;47.792;12.076;2023-04-01T00:05:18;0.40;;;0.40;;
15228;SDS011;7717;47.792;12.076;2023-04-01T00:07:44;1.10;;;0.40;;
15228;SDS011;7717;47.792;12.076;2023-04-01T00:10:10;1.50;;;0.40;;
15228;SDS011;7717;47.792;12.076;2023-04-01T00:12:36;1.23;;;0.30;;
15228;SDS011;7717;47.792;12.076;2023-04-01T00:15:03;0.27;;;0.27;;
15228;SDS011;7717;47.792;12.076;2023-04-01T00:17:34;0.83;;;0.30;;
15228;SDS011;7717;47.792;12.076;2023-04-01T00:20:00;1.50;;;0.33;;
15228;SDS011;7717;47.792;12.076;2023-04-01T00:22:26;0.20;;;0.20;;
15228;SDS011;7717;47.792;12.076;2023-04-01T00:24:52;3.40;;;0.60;;
15228;SDS011;7717;47.792;12.076;2023-04-01T00:27:18;0.23;;;0.10;;
15228;SDS011;7717;47.792;12.076;2023-04-01T00:29:44;0.53;;;0.20;;
15228;SDS011;7717;47.792;12.076;2023-04-01T00:32:10;0.33;;;0.20;;
15228;SDS011;7717;47.792;12.076;2023-04-01T00:34:36;1.20;;;1.03;;
15228;SDS011;7717;47.792;12.076;2023-04-01T00:37:02;0.40;;;0.20;;
15228;SDS011;7717;47.792;12.076;2023-04-01T00:39:29;0.20;;;0.20;;
15228;SDS011;7717;47.792;12.076;2023-04-01T00:41:56;1.63;;;0.30;;
15228;SDS011;7717;47.792;12.076;2023-04-01T00:44:26;1.40;;;0.37;;
15228;SDS011;7717;47.792;12.076;2023-04-01T00:46:54;1.70;;;0.30;;
15228;SDS011;7717;47.792;12.076;2023-04-01T00:49:21;0.60;;;0.40;;
15228;SDS011;7717;47.792;12.076;2023-04-01T00:51:52;2.47;;;0.50;;
15228;SDS011;7717;47.792;12.076;2023-04-01T00:54:20;1.70;;;0.40;;
15228;SDS011;7717;47.792;12.076;2023-04-01T00:56:48;0.90;;;0.40;;
15228;SDS011;7717;47.792;12.076;2023-04-01T00:59:23;0.23;;;0.23;;
15228;SDS011;7717;47.792;12.076;2023-04-01T01:01:54;0.30;;;0.30;;
15228;SDS011;7717;47.792;12.076;2023-04-01T01:04:24;2.77;;;0.40;;
15228;SDS011;7717;47.792;12.076;2023-04-01T01:15:02;0.30;;;0.27;;
15228;SDS011;7717;47.792;12.076;2023-04-01T01:17:40;1.90;;;0.50;;
15228;SDS011;7717;47.792;12.076;2023-04-01T01:20:17;1.70;;;0.40;;
15228;SDS011;7717;47.792;12.076;2023-04-01T01:25:47;1.43;;;0.60;;
15228;SDS011;7717;47.792;12.076;2023-04-01T01:31:44;2.13;;;1.50;;
15228;SDS011;7717;47.792;12.076;2023-04-01T01:37:24;1.50;;;1.40;;
15228;SDS011;7717;47.792;12.076;2023-04-01T01:40:03;1.70;;;1.10;;
15228;SDS011;7717;47.792;12.076;2023-04-01T01:42:31;2.27;;;1.50;;
15228;SDS011;7717;47.792;12.076;2023-04-01T01:45:02;2.37;;;1.67;;
15228;SDS011;7717;47.792;12.076;2023-04-01T01:47:30;1.37;;;1.07;;
15228;SDS011;7717;47.792;12.076;2023-04-01T01:49:58;1.87;;;1.13;;
15228;SDS011;7717;47.792;12.076;2023-04-01T01:52:26;1.37;;;1.20;;
15228;SDS011;7717;47.792;12.076;2023-04-01T01:54:53;1.00;;;0.90;;
15228;SDS011;7717;47.792;12.076;2023-04-01T01:57:24;1.80;;;1.37;;
15228;SDS011;7717;47.792;12.076;2023-04-01T01:59:55;1.30;;;1.20;;
15228;SDS011;7717;47.792;12.076;2023-04-01T02:02:24;2.50;;;1.07;;
15228;SDS011;7717;47.792;12.076;2023-04-01T02:04:51;2.40;;;0.90;;
15228;SDS011;7717;47.792;12.076;2023-04-01T02:07:22;1.20;;;1.10;;
15228;SDS011;7717;47.792;12.076;2023-04-01T02:09:52;1.77;;;1.20;;
15228;SDS011;7717;47.792;12.076;2023-04-01T02:12:18;1.73;;;0.97;;
15228;SDS011;7717;47.792;12.076;2023-04-01T02:17:32;2.73;;;1.13;;
15228;SDS011;7717;47.792;12.076;2023-04-01T02:22:31;0.97;;;0.90;;
15228;SDS011;7717;47.792;12.076;2023-04-01T02:25:01;2.10;;;1.07;;
15228;SDS011;7717;47.792;12.076;2023-04-01T02:27:30;1.73;;;0.90;;
15228;SDS011;7717;47.792;12.076;2023-04-01T02:29:56;1.00;;;0.90;;
15228;SDS011;7717;47.792;12.076;2023-04-01T02:32:22;0.90;;;0.83;;
15228;SDS011;7717;47.792;12.076;2023-04-01T02:34:48;1.30;;;0.70;;
15228;SDS011;7717;47.792;12.076;2023-04-01T02:37:14;1.60;;;0.90;;
15228;SDS011;7717;47.792;12.076;2023-04-01T02:39:40;3.10;;;0.77;;
15228;SDS011;7717;47.792;12.076;2023-04-01T02:42:07;2.87;;;0.70;;
15228;SDS011;7717;47.792;12.076;2023-04-01T02:44:33;0.57;;;0.53;;
15228;SDS011;7717;47.792;12.076;2023-04-01T02:46:58;0.83;;;0.70;;
15228;SDS011;7717;47.792;12.076;2023-04-01T02:49:24;0.47;;;0.47;;
15228;SDS011;7717;47.792;12.076;2023-04-01T02:51:49;1.43;;;0.60;;
15228;SDS011;7717;47.792;12.076;2023-04-01T02:54:14;1.50;;;0.50;;
15228;SDS011;7717;47.792;12.076;2023-04-01T02:56:40;0.60;;;0.60;;
15228;SDS011;7717;47.792;12.076;2023-04-01T02:59:05;1.63;;;0.93;;
15228;SDS011;7717;47.792;12.076;2023-04-01T03:01:30;0.70;;;0.70;;
15228;SDS011;7717;47.792;12.076;2023-04-01T03:03:56;1.23;;;0.60;;
15228;SDS011;7717;47.792;12.076;2023-04-01T03:06:21;2.53;;;0.67;;
15228;SDS011;7717;47.792;12.076;2023-04-01T03:08:47;2.70;;;0.70;;
15228;SDS011;7717;47.792;12.076;2023-04-01T03:11:12;0.67;;;0.60;;
15228;SDS011;7717;47.792;12.076;2023-04-01T03:13:38;1.93;;;0.70;;
15228;SDS011;7717;47.792;12.076;2023-04-01T03:16:04;1.30;;;0.50;;
15228;SDS011;7717;47.792;12.076;2023-04-01T03:18:29;1.90;;;0.70;;
15228;SDS011;7717;47.792;12.076;2023-04-01T03:20:55;1.03;;;0.43;;
15228;SDS011;7717;47.792;12.076;2023-04-01T03:23:20;0.77;;;0.47;;
15228;SDS011;7717;47.792;12.076;2023-04-01T03:25:46;0.37;;;0.23;;
15228;SDS011;7717;47.792;12.076;2023-04-01T03:28:13;0.30;;;0.20;;
15228;SDS011;7717;47.792;12.076;2023-04-01T03:30:38;2.17;;;0.40;;
15228;SDS011;7717;47.792;12.076;2023-04-01T03:33:05;0.20;;;0.20;;
15228;SDS011;7717;47.792;12.076;2023-04-01T03:35:31;0.20;;;0.10;;
15228;SDS011;7717;47.792;12.076;2023-04-01T03:37:57;1.40;;;0.10;;
15228;SDS011;7717;47.792;12.076;2023-04-01T03:40:22;0.10;;;0.10;;
15228;SDS011;7717;47.792;12.076;2023-04-01T03:42:48;0.57;;;0.20;;
15228;SDS011;7717;47.792;12.076;2023-04-01T03:45:15;0.30;;;0.30;;
15228;SDS011;7717;47.792;12.076;2023-04-01T03:47:40;0.10;;;0.10;;
15228;SDS011;7717;47.792;12.076;2023-04-01T03:50:06;0.40;;;0.10;;
15228;SDS011;7717;47.792;12.076;2023-04-01T03:52:32;0.27;;;0.27;;
15228;SDS011;7717;47.792;12.076;2023-04-01T03:54:58;0.70;;;0.30;;
15228;SDS011;7717;47.792;12.076;2023-04-01T03:57:24;0.40;;;0.20;;
15228;SDS011;7717;47.792;12.076;2023-04-01T03:59:50;0.23;;;0.23;;
15228;SDS011;7717;47.792;12.076;2023-04-01T04:02:15;0.73;;;0.10;;
15228;SDS011;7717;47.792;12.076;2023-04-01T04:04:40;0.90;;;0.90;;
15228;SDS011;7717;47.792;12.076;2023-04-01T04:07:06;3.03;;;2.77;;
15228;SDS011;7717;47.792;12.076;2023-04-01T04:09:31;3.17;;;2.40;;
15228;SDS011;7717;47.792;12.076;2023-04-01T04:11:58;17.23;;;12.87;;
15228;SDS011;7717;47.792;12.076;2023-04-01T04:14:24;4.83;;;4.20;;
15228;SDS011;7717;47.792;12.076;2023-04-01T04:16:49;2.27;;;0.73;;
15228;SDS011;7717;47.792;12.076;2023-04-01T04:19:14;1.00;;;0.77;;
15228;SDS011;7717;47.792;12.076;2023-04-01T04:21:40;1.07;;;1.03;;
15228;SDS011;7717;47.792;12.076;2023-04-01T04:24:06;3.73;;;1.40;;
15228;SDS011;7717;47.792;12.076;2023-04-01T04:26:32;1.60;;;1.40;;
15228;SDS011;7717;47.792;12.076;2023-04-01T04:28:57;1.60;;;1.50;;
15228;SDS011;7717;47.792;12.076;2023-04-01T04:31:23;1.60;;;1.40;;
15228;SDS011;7717;47.792;12.076;2023-04-01T04:33:50;2.03;;;1.40;;
15228;SDS011;7717;47.792;12.076;2023-04-01T04:36:16;1.90;;;1.37;;
15228;SDS011;7717;47.792;12.076;2023-04-01T04:38:42;2.97;;;1.80;;
15228;SDS011;7717;47.792;12.076;2023-04-01T04:41:08;2.03;;;1.40;;
15228;SDS011;7717;47.792;12.076;2023-04-01T04:43:35;1.97;;;1.40;;
15228;SDS011;7717;47.792;12.076;2023-04-01T04:46:03;2.07;;;1.60;;
15228;SDS011;7717;47.792;12.076;2023-04-01T04:48:30;1.93;;;1.80;;
15228;SDS011;7717;47.792;12.076;2023-04-01T04:50:56;1.60;;;1.50;;
15228;SDS011;7717;47.792;12.076;2023-04-01T04:53:21;2.07;;;1.87;;
15228;SDS011;7717;47.792;12.076;2023-04-01T04:55:47;1.40;;;1.30;;
15228;SDS011;7717;47.792;12.076;2023-04-01T04:58:14;3.70;;;1.50;;
15228;SDS011;7717;47.792;12.076;2023-04-01T05:00:40;2.90;;;1.90;;
15228;SDS011;7717;47.792;12.076;2023-04-01T05:03:06;3.40;;;2.07;;
15228;SDS011;7717;47.792;12.076;2023-04-01T05:05:31;2.23;;;2.10;;
15228;SDS011;7717;47.792;12.076;2023-04-01T05:07:56;2.53;;;1.77;;
15228;SDS011;7717;47.792;12.076;2023-04-01T05:10:25;2.93;;;1.90;;
15228;SDS011;7717;47.792;12.076;2023-04-01T05:12:50;3.67;;;1.77;;
15228;SDS011;7717;47.792;12.076;2023-04-01T05:15:15;2.27;;;1.67;;
15228;SDS011;7717;47.792;12.076;2023-04-01T05:17:41;1.80;;;1.70;;
15228;SDS011;7717;47.792;12.076;2023-04-01T05:20:07;1.50;;;1.40;;
15228;SDS011;7717;47.792;12.076;2023-04-01T05:22:32;1.90;;;1.73;;
15228;SDS011;7717;47.792;12.076;2023-04-01T05:24:58;1.93;;;1.73;;
15228;SDS011;7717;47.792;12.076;2023-04-01T05:27:23;2.00;;;1.90;;
15228;SDS011;7717;47.792;12.076;2023-04-01T05:29:49;2.93;;;1.50;;
15228;SDS011;7717;47.792;12.076;2023-04-01T05:32:14;2.67;;;1.60;;
15228;SDS011;7717;47.792;12.076;2023-04-01T05:34:40;1.20;;;1.10;;
15228;SDS011;7717;47.792;12.076;2023-04-01T05:37:05;1.83;;;1.73;;
15228;SDS011;7717;47.792;12.076;2023-04-01T05:39:35;1.30;;;1.20;;
15228;SDS011;7717;47.792;12.076;2023-04-01T05:42:02;1.40;;;1.30;;
15228;SDS011;7717;47.792;12.076;2023-04-01T05:44:28;1.80;;;1.70;;
15228;SDS011;7717;47.792;12.076;2023-04-01T05:46:53;1.80;;;1.70;;
15228;SDS011;7717;47.792;12.076;2023-04-01T05:49:19;2.27;;;1.37;;
15228;SDS011;7717;47.792;12.076;2023-04-01T05:51:44;2.30;;;1.90;;
15228;SDS011;7717;47.792;12.076;2023-04-01T05:54:09;2.77;;;2.07;;
15228;SDS011;7717;47.792;12.076;2023-04-01T05:56:35;2.60;;;2.20;;
15228;SDS011;7717;47.792;12.076;2023-04-01T05:59:00;1.43;;;1.10;;
15228;SDS011;7717;47.792;12.076;2023-04-01T06:01:25;1.43;;;1.23;;
15228;SDS011;7717;47.792;12.076;2023-04-01T06:03:51;0.90;;;0.60;;
15228;SDS011;7717;47.792;12.076;2023-04-01T06:06:24;0.80;;;0.80;;
15228;SDS011;7717;47.792;12.076;2023-04-01T06:08:53;0.53;;;0.50;;
15228;SDS011;7717;47.792;12.076;2023-04-01T06:11:28;2.00;;;1.50;;
15228;SDS011;7717;47.792;12.076;2023-04-01T06:14:16;0.93;;;0.80;;
15228;SDS011;7717;47.792;12.076;2023-04-01T06:30:52;3.97;;;1.80;;
15228;SDS011;7717;47.792;12.076;2023-04-01T06:55:38;4.90;;;2.20;;
15228;SDS011;7717;47.792;12.076;2023-04-01T06:58:21;5.23;;;1.60;;
15228;SDS011;7717;47.792;12.076;2023-04-01T07:00:50;3.70;;;2.33;;
15228;SDS011;7717;47.792;12.076;2023-04-01T07:06:04;1.60;;;0.90;;
15228;SDS011;7717;47.792;12.076;2023-04-01T07:08:44;2.27;;;0.90;;
15228;SDS011;7717;47.792;12.076;2023-04-01T07:11:11;3.27;;;1.27;;
15228;SDS011;7717;47.792;12.076;2023-04-01T07:16:46;1.30;;;1.00;;
15228;SDS011;7717;47.792;12.076;2023-04-01T07:19:31;2.43;;;1.13;;
15228;SDS011;7717;47.792;12.076;2023-04-01T07:22:04;1.17;;;1.17;;
15228;SDS011;7717;47.792;12.076;2023-04-01T07:24:42;1.30;;;1.20;;
15228;SDS011;7717;47.792;12.076;2023-04-01T07:27:11;1.47;;;1.10;;
15228;SDS011;7717;47.792;12.076;2023-04-01T07:29:38;0.83;;;0.83;;
15228;SDS011;7717;47.792;12.076;2023-04-01T07:37:11;1.70;;;1.10;;
15228;SDS011;7717;47.792;12.076;2023-04-01T07:42:09;1.17;;;1.07;;
15228;SDS011;7717;47.792;12.076;2023-04-01T07:50:29;1.50;;;1.40;;
15228;SDS011;7717;47.792;12.076;2023-04-01T07:58:14;1.23;;;1.17;;
15228;SDS011;7717;47.792;12.076;2023-04-01T08:06:02;1.40;;;1.30;;
15228;SDS011;7717;47.792;12.076;2023-04-01T08:08:37;1.20;;;1.10;;
15228;SDS011;7717;47.792;12.076;2023-04-01T08:14:01;1.10;;;0.90;;
15228;SDS011;7717;47.792;12.076;2023-04-01T08:17:00;1.07;;;0.70;;
15228;SDS011;7717;47.792;12.076;2023-04-01T08:22:25;0.60;;;0.60;;
15228;SDS011;7717;47.792;12.076;2023-04-01T08:24:52;4.13;;;2.53;;
15228;SDS011;7717;47.792;12.076;2023-04-01T08:30:06;0.30;;;0.30;;
15228;SDS011;7717;47.792;12.076;2023-04-01T08:32:42;0.70;;;0.50;;
15228;SDS011;7717;47.792;12.076;2023-04-01T08:35:19;1.00;;;0.90;;
15228;SDS011;7717;47.792;12.076;2023-04-01T08:37:46;1.33;;;0.90;;
15228;SDS011;7717;47.792;12.076;2023-04-01T08:43:43;1.20;;;1.10;;
15228;SDS011;7717;47.792;12.076;2023-04-01T08:53:56;0.10;;;0.10;;
15228;SDS011;7717;47.792;12.076;2023-04-01T08:56:28;0.57;;;0.20;;
15228;SDS011;7717;47.792;12.076;2023-04-01T09:27:29;0.50;;;0.40;;
15228;SDS011;7717;47.792;12.076;2023-04-01T09:41:13;1.07;;;0.80;;
15228;SDS011;7717;47.792;12.076;2023-04-01T09:55:14;0.10;;;0.10;;
15228;SDS011;7717;47.792;12.076;2023-04-01T10:00:43;3.90;;;2.97;;
15228;SDS011;7717;47.792;12.076;2023-04-01T10:12:24;0.03;;;0.03;;
15228;SDS011;7717;47.792;12.076;2023-04-01T10:20:59;1.07;;;1.07;;
15228;SDS011;7717;47.792;12.076;2023-04-01T10:29:57;0.63;;;0.63;;
15228;SDS011;7717;47.792;12.076;2023-04-01T11:17:33;2.00;;;0.40;;
15228;SDS011;7717;47.792;12.076;2023-04-01T11:26:00;0.10;;;0.10;;
15228;SDS011;7717;47.792;12.076;2023-04-01T11:31:25;1.20;;;0.80;;
15228;SDS011;7717;47.792;12.076;2023-04-01T11:34:16;2.10;;;1.33;;
15228;SDS011;7717;47.792;12.076;2023-04-01T11:42:10;0.57;;;0.40;;
15228;SDS011;7717;47.792;12.076;2023-04-01T11:44:39;1.23;;;1.00;;
15228;SDS011;7717;47.792;12.076;2023-04-01T11:47:22;0.23;;;0.20;;
15228;SDS011;7717;47.792;12.076;2023-04-01T11:50:15;1.00;;;0.70;;
15228;SDS011;7717;47.792;12.076;2023-04-01T11:56:01;0.30;;;0.30;;
15228;SDS011;7717;47.792;12.076;2023-04-01T12:01:25;0.00;;;0.00;;
15228;SDS011;7717;47.792;12.076;2023-04-01T12:09:17;0.10;;;0.10;;
15228;SDS011;7717;47.792;12.076;2023-04-01T12:26:10;0.10;;;0.10;;
15228;SDS011;7717;47.792;12.076;2023-04-01T12:37:07;0.40;;;0.40;;
15228;SDS011;7717;47.792;12.076;2023-04-01T12:39:44;1.13;;;0.50;;
15228;SDS011;7717;47.792;12.076;2023-04-01T12:42:29;0.40;;;0.40;;
15228;SDS011;7717;47.792;12.076;2023-04-01T12:45:28;0.90;;;0.40;;
15228;SDS011;7717;47.792;12.076;2023-04-01T12:48:01;0.27;;;0.27;;
15228;SDS011;7717;47.792;12.076;2023-04-01T12:56:04;0.00;;;0.00;;
15228;SDS011;7717;47.792;12.076;2023-04-01T13:17:22;0.20;;;0.20;;
15228;SDS011;7717;47.792;12.076;2023-04-01T13:27:48;0.10;;;0.10;;
15228;SDS011;7717;47.792;12.076;2023-04-01T13:35:44;0.10;;;0.10;;
15228;SDS011;7717;47.792;12.076;2023-04-01T14:01:39;0.70;;;0.70;;
15228;SDS011;7717;47.792;12.076;2023-04-01T14:07:08;1.47;;;1.30;;
15228;SDS011;7717;47.792;12.076;2023-04-01T14:12:09;0.70;;;0.60;;
15228;SDS011;7717;47.792;12.076;2023-04-01T14:25:38;9.57;;;4.90;;
15228;SDS011;7717;47.792;12.076;2023-04-01T14:34:15;2.80;;;2.10;;
15228;SDS011;7717;47.792;12.076;2023-04-01T14:47:53;0.37;;;0.20;;
15228;SDS011;7717;47.792;12.076;2023-04-01T14:50:27;1.20;;;1.10;;
15228;SDS011;7717;47.792;12.076;2023-04-01T15:01:06;0.20;;;0.20;;
15228;SDS011;7717;47.792;12.076;2023-04-01T15:03:51;0.40;;;0.40;;
15228;SDS011;7717;47.792;12.076;2023-04-01T15:14:46;0.47;;;0.47;;
15228;SDS011;7717;47.792;12.076;2023-04-01T15:17:34;0.40;;;0.40;;
15228;SDS011;7717;47.792;12.076;2023-04-01T15:23:34;0.30;;;0.30;;
15228;SDS011;7717;47.792;12.076;2023-04-01T15:34:52;1.07;;;0.40;;
15228;SDS011;7717;47.792;12.076;2023-04-01T15:37:27;0.17;;;0.17;;
15228;SDS011;7717;47.792;12.076;2023-04-01T15:42:39;0.70;;;0.70;;
15228;SDS011;7717;47.792;12.076;2023-04-01T15:47:55;3.47;;;3.17;;
15228;SDS011;7717;47.792;12.076;2023-04-01T15:50:46;1.33;;;1.20;;
15228;SDS011;7717;47.792;12.076;2023-04-01T15:53:18;3.47;;;3.17;;
15228;SDS011;7717;47.792;12.076;2023-04-01T15:55:48;2.77;;;1.60;;
15228;SDS011;7717;47.792;12.076;2023-04-01T16:03:52;3.83;;;3.63;;
15228;SDS011;7717;47.792;12.076;2023-04-01T16:11:57;0.97;;;0.93;;
15228;SDS011;7717;47.792;12.076;2023-04-01T16:17:20;0.30;;;0.30;;
15228;SDS011;7717;47.792;12.076;2023-04-01T16:20:00;0.40;;;0.40;;
15228;SDS011;7717;47.792;12.076;2023-04-01T16:22:45;1.13;;;1.10;;
15228;SDS011;7717;47.792;12.076;2023-04-01T16:25:20;0.30;;;0.30;;
15228;SDS011;7717;47.792;12.076;2023-04-01T16:31:04;0.70;;;0.70;;
15228;SDS011;7717;47.792;12.076;2023-04-01T16:33:37;4.33;;;2.63;;
15228;SDS011;7717;47.792;12.076;2023-04-01T16:36:28;1.67;;;1.10;;
15228;SDS011;7717;47.792;12.076;2023-04-01T16:39:29;0.60;;;0.60;;
15228;SDS011;7717;47.792;12.076;2023-04-01T16:44:54;0.90;;;0.90;;
15228;SDS011;7717;47.792;12.076;2023-04-01T16:47:35;0.20;;;0.20;;
15228;SDS011;7717;47.792;12.076;2023-04-01T16:55:24;0.63;;;0.63;;
15228;SDS011;7717;47.792;12.076;2023-04-01T16:58:00;0.57;;;0.57;;
15228;SDS011;7717;47.792;12.076;2023-04-01T17:03:34;0.37;;;0.37;;
15228;SDS011;7717;47.792;12.076;2023-04-01T17:06:12;1.20;;;1.10;;
15228;SDS011;7717;47.792;12.076;2023-04-01T17:14:50;1.33;;;0.70;;
15228;SDS011;7717;47.792;12.076;2023-04-01T17:27:52;0.40;;;0.30;;
15228;SDS011;7717;47.792;12.076;2023-04-01T17:33:28;5.97;;;5.33;;
15228;SDS011;7717;47.792;12.076;2023-04-01T17:41:25;7.20;;;6.60;;
15228;SDS011;7717;47.792;12.076;2023-04-01T17:44:04;2.50;;;2.40;;
15228;SDS011;7717;47.792;12.076;2023-04-01T17:52:44;1.20;;;1.10;;
15228;SDS011;7717;47.792;12.076;2023-04-01T18:06:25;4.90;;;1.30;;
15228;SDS011;7717;47.792;12.076;2023-04-01T18:11:50;1.73;;;1.63;;
15228;SDS011;7717;47.792;12.076;2023-04-01T18:22:44;0.97;;;0.30;;
15228;SDS011;7717;47.792;12.076;2023-04-01T18:25:29;1.20;;;1.10;;
15228;SDS011;7717;47.792;12.076;2023-04-01T18:28:18;3.20;;;2.10;;
15228;SDS011;7717;47.792;12.076;2023-04-01T18:30:57;1.77;;;1.33;;
15228;SDS011;7717;47.792;12.076;2023-04-01T18:36:38;0.70;;;0.70;;
15228;SDS011;7717;47.792;12.076;2023-04-01T18:39:13;1.23;;;0.40;;
15228;SDS011;7717;47.792;12.076;2023-04-01T18:53:12;1.70;;;1.43;;
15228;SDS011;7717;47.792;12.076;2023-04-01T18:55:57;2.57;;;2.37;;
15228;SDS011;7717;47.792;12.076;2023-04-01T18:58:32;1.60;;;1.50;;
15228;SDS011;7717;47.792;12.076;2023-04-01T19:01:16;1.80;;;0.90;;
15228;SDS011;7717;47.792;12.076;2023-04-01T19:04:10;0.90;;;0.90;;
15228;SDS011;7717;47.792;12.076;2023-04-01T19:06:48;0.40;;;0.40;;
15228;SDS011;7717;47.792;12.076;2023-04-01T19:26:39;2.07;;;1.80;;
15228;SDS011;7717;47.792;12.076;2023-04-01T19:40:37;5.53;;;4.37;;
15228;SDS011;7717;47.792;12.076;2023-04-01T19:43:15;5.20;;;4.70;;
15228;SDS011;7717;47.792;12.076;2023-04-01T19:45:54;31.47;;;15.33;;
15228;SDS011;7717;47.792;12.076;2023-04-01T19:51:43;13.53;;;10.27;;
15228;SDS011;7717;47.792;12.076;2023-04-01T19:59:40;13.07;;;10.23;;
15228;SDS011;7717;47.792;12.076;2023-04-01T20:16:50;7.30;;;4.13;;
15228;SDS011;7717;47.792;12.076;2023-04-01T20:19:37;6.00;;;4.53;;
15228;SDS011;7717;47.792;12.076;2023-04-01T20:22:20;10.13;;;5.33;;
15228;SDS011;7717;47.792;12.076;2023-04-01T20:24:50;4.77;;;3.53;;
15228;SDS011;7717;47.792;12.076;2023-04-01T20:27:26;6.03;;;4.67;;
15228;SDS011;7717;47.792;12.076;2023-04-01T20:30:04;10.00;;;6.23;;
15228;SDS011;7717;47.792;12.076;2023-04-01T20:39:04;8.13;;;5.93;;
15228;SDS011;7717;47.792;12.076;2023-04-01T20:42:29;6.20;;;4.43;;
15228;SDS011;7717;47.792;12.076;2023-04-01T20:47:49;5.43;;;4.20;;
15228;SDS011;7717;47.792;12.076;2023-04-01T20:50:50;26.80;;;15.90;;
15228;SDS011;7717;47.792;12.076;2023-04-01T20:58:54;12.97;;;11.17;;
15228;SDS011;7717;47.792;12.076;2023-04-01T21:01:40;7.30;;;6.27;;
15228;SDS011;7717;47.792;12.076;2023-04-01T21:10:08;7.47;;;5.90;;
15228;SDS011;7717;47.792;12.076;2023-04-01T21:15:32;10.20;;;7.60;;
15228;SDS011;7717;47.792;12.076;2023-04-01T21:32:08;6.50;;;4.83;;
15228;SDS011;7717;47.792;12.076;2023-04-01T21:34:38;5.03;;;4.40;;
15228;SDS011;7717;47.792;12.076;2023-04-01T21:42:32;7.23;;;4.03;;
15228;SDS011;7717;47.792;12.076;2023-04-01T21:47:55;4.67;;;3.40;;
15228;SDS011;7717;47.792;12.076;2023-04-01T21:50:42;3.90;;;3.37;;
15228;SDS011;7717;47.792;12.076;2023-04-01T21:59:15;2.50;;;2.27;;
15228;SDS011;7717;47.792;12.076;2023-04-01T22:09:52;3.13;;;2.67;;
15228;SDS011;7717;47.792;12.076;2023-04-01T22:13:07;3.43;;;3.13;;
15228;SDS011;7717;47.792;12.076;2023-04-01T22:18:34;3.53;;;2.67;;
15228;SDS011;7717;47.792;12.076;2023-04-01T22:26:53;1.50;;;1.40;;
15228;SDS011;7717;47.792;12.076;2023-04-01T22:40:39;1.77;;;0.73;;
15228;SDS011;7717;47.792;12.076;2023-04-01T22:43:12;1.83;;;0.90;;
15228;SDS011;7717;47.792;12.076;2023-04-01T22:48:32;0.80;;;0.80;;
15228;SDS011;7717;47.792;12.076;2023-04-01T22:51:15;0.63;;;0.60;;
15228;SDS011;7717;47.792;12.076;2023-04-01T22:54:46;0.87;;;0.70;;
15228;SDS011;7717;47.792;12.076;2023-04-01T22:56:51;0.73;;;0.70;;
15228;SDS011;7717;47.792;12.076;2023-04-01T22:59:25;0.70;;;0.50;;
15228;SDS011;7717;47.792;12.076;2023-04-01T23:01:55;0.60;;;0.53;;
15228;SDS011;7717;47.792;12.076;2023-04-01T23:04:42;2.03;;;1.20;;
15228;SDS011;7717;47.792;12.076;2023-04-01T23:07:19;0.83;;;0.73;;
15228;SDS011;7717;47.792;12.076;2023-04-01T23:09:56;0.87;;;0.70;;
15228;SDS011;7717;47.792;12.076;2023-04-01T23:12:25;0.73;;;0.73;;
15228;SDS011;7717;47.792;12.076;2023-04-01T23:14:55;1.40;;;1.30;;
15228;SDS011;7717;47.792;12.076;2023-04-01T23:25:55;2.70;;;1.77;;
15228;SDS011;7717;47.792;12.076;2023-04-01T23:31:27;11.00;;;4.77;;
15228;SDS011;7717;47.792;12.076;2023-04-01T23:33:58;33.80;;;11.07;;
15228;SDS011;7717;47.792;12.076;2023-04-01T23:36:27;18.63;;;7.00;;
15228;SDS011;7717;47.792;12.076;2023-04-01T23:38:54;10.20;;;4.17;;
15228;SDS011;7717;47.792;12.076;2023-04-01T23:41:30;5.80;;;3.27;;
15228;SDS011;7717;47.792;12.076;2023-04-01T23:44:02;5.00;;;2.93;;
15228;SDS011;7717;47.792;12.076;2023-04-01T23:46:34;0.63;;;0.50;;
15228;SDS011;7717;47.792;12.076;2023-04-01T23:49:02;2.60;;;0.67;;
15228;SDS011;7717;47.792;12.076;2023-04-01T23:51:38;1.00;;;1.00;;
15228;SDS011;7717;47.792;12.076;2023-04-01T23:56:46;0.80;;;0.50;;
15228;SDS011;7717;47.792;12.076;2023-04-01T23:59:16;0.30;;;0.30;;
